Terminal Aerodrome Forecast
Issued by NWS Wichita, KS

Home | Current Version | Previous Version | Graphics & Text | Print | Product List | Glossary On
Versions: 1 2 3 4 5 6 7 8 9 10 11 12 13 14 15
890
FTUS43 KICT 012323
TAFICT
TAF
KICT 012323Z 0200/0224 35009KT P6SM VCSH SCT025 BKN035 BKN120
      TEMPO 0200/0203 BKN025
     FM020300 36007KT P6SM VCSH SCT015 OVC025
     FM021200 36012KT P6SM OVC040
     FM021600 34009KT P6SM SCT080=

USA.gov is the U.S. government's official web portal to all federal, state and local government web resources and services.